createdAt,value
2019-04-23T00:00:56.211Z,13.61
2019-04-23T00:01:50.946Z,13.60
2019-04-23T00:02:48.858Z,13.62
2019-04-23T00:03:51.682Z,13.58
2019-04-23T00:05:48.143Z,13.61
2019-04-23T00:07:03.520Z,13.50
2019-04-23T00:10:01.320Z,13.52
2019-04-23T00:10:51.528Z,13.50
2019-04-23T00:11:54.387Z,13.52
2019-04-23T00:12:47.785Z,13.52
2019-04-23T00:13:49.971Z,13.50
2019-04-23T00:14:55.000Z,13.46
2019-04-23T00:16:00.363Z,13.43
2019-04-23T00:16:54.521Z,13.45
2019-04-23T00:17:48.949Z,13.45
2019-04-23T00:18:46.448Z,13.43
2019-04-23T00:19:55.675Z,13.47
2019-04-23T00:20:48.017Z,13.49
2019-04-23T00:22:51.693Z,13.45
2019-04-23T00:23:53.385Z,13.43
2019-04-23T00:25:53.701Z,13.39
2019-04-23T00:26:52.230Z,13.33
2019-04-23T00:27:50.409Z,13.26
2019-04-23T00:29:56.229Z,13.28
2019-04-23T00:30:58.222Z,13.30
2019-04-23T00:31:49.890Z,13.26
2019-04-23T00:32:46.164Z,13.23
2019-04-23T00:33:52.725Z,13.17
2019-04-23T00:34:54.635Z,13.17
2019-04-23T00:35:49.830Z,13.17
2019-04-23T00:36:51.712Z,13.21
2019-04-23T00:37:47.694Z,13.16
2019-04-23T00:39:01.340Z,13.09
2019-04-23T00:40:55.694Z,13.06
2019-04-23T00:41:55.316Z,13.03
2019-04-23T00:42:47.902Z,13.05
2019-04-23T00:43:54.943Z,13.03
2019-04-23T00:44:51.765Z,13.02
2019-04-23T00:45:49.853Z,12.94
2019-04-23T00:46:48.973Z,12.95
2019-04-23T00:47:52.604Z,12.94
2019-04-23T00:49:03.611Z,12.91
2019-04-23T00:50:58.483Z,12.90
2019-04-23T00:51:50.086Z,12.83
2019-04-23T00:52:50.668Z,12.86
2019-04-23T00:54:06.054Z,12.84
2019-04-23T00:54:57.518Z,12.83
2019-04-23T00:56:03.650Z,12.75
2019-04-23T00:56:53.770Z,12.75
2019-04-23T00:57:48.723Z,12.73
2019-04-23T00:58:51.010Z,12.80
2019-04-23T00:59:53.649Z,12.72
2019-04-23T01:01:18.329Z,12.65
2019-04-23T01:01:56.752Z,12.70
2019-04-23T01:02:53.371Z,12.66
2019-04-23T01:03:51.873Z,12.61
2019-04-23T01:04:59.666Z,12.62
2019-04-23T01:05:47.458Z,12.62
2019-04-23T01:06:52.344Z,12.73
2019-04-23T01:07:56.347Z,12.66
2019-04-23T01:08:52.377Z,12.70
2019-04-23T01:09:52.736Z,12.70
2019-04-23T01:10:54.020Z,12.65
2019-04-23T01:11:53.504Z,12.58
2019-04-23T01:12:55.430Z,12.66
2019-04-23T01:13:48.963Z,12.69
2019-04-23T01:14:53.357Z,12.69
2019-04-23T01:15:53.630Z,12.63
2019-04-23T01:16:42.580Z,12.69
2019-04-23T01:17:53.113Z,12.63
2019-04-23T01:18:51.481Z,12.53
2019-04-23T01:19:49.506Z,12.51
2019-04-23T01:20:51.976Z,12.61
2019-04-23T01:21:28.441Z,12.61
2019-04-23T01:22:29.285Z,12.53
2019-04-23T01:23:37.759Z,12.53
2019-04-23T01:24:31.482Z,12.51
2019-04-23T01:25:36.427Z,12.37
2019-04-23T01:26:57.621Z,12.50
2019-04-23T01:28:55.752Z,12.44
2019-04-23T01:29:58.540Z,12.48
2019-04-23T01:30:55.341Z,12.48
2019-04-23T01:31:53.546Z,12.43
2019-04-23T01:33:09.242Z,12.47
2019-04-23T01:33:51.783Z,12.47
2019-04-23T01:34:56.225Z,12.48
2019-04-23T01:36:06.166Z,12.48
2019-04-23T01:36:54.605Z,12.44
2019-04-23T01:37:52.340Z,12.32
2019-04-23T01:38:55.695Z,12.37
2019-04-23T01:40:50.373Z,12.28
2019-04-23T01:41:58.017Z,12.30
2019-04-23T01:42:49.204Z,12.28
2019-04-23T01:43:53.544Z,12.26
2019-04-23T01:45:05.000Z,12.25
2019-04-23T01:45:51.105Z,12.23
2019-04-23T01:46:56.125Z,12.18
2019-04-23T01:47:55.830Z,12.18
2019-04-23T01:48:52.223Z,12.20
2019-04-23T01:50:54.595Z,12.18
2019-04-23T01:51:54.912Z,12.15
2019-04-23T01:53:51.546Z,11.99
2019-04-23T01:54:52.796Z,12.07
2019-04-23T01:55:52.755Z,12.02
2019-04-23T01:56:49.447Z,11.91
2019-04-23T01:59:58.418Z,11.95
2019-04-23T02:00:53.234Z,11.85
2019-04-23T02:02:55.480Z,11.80
2019-04-23T02:03:58.250Z,11.80
2019-04-23T02:05:07.597Z,11.73
2019-04-23T02:05:55.826Z,11.73
2019-04-23T02:06:50.512Z,11.67
2019-04-23T02:07:56.976Z,11.60
2019-04-23T02:08:53.592Z,11.60
2019-04-23T02:09:55.329Z,11.53
2019-04-23T02:10:58.694Z,11.51
2019-04-23T02:11:52.544Z,11.56
2019-04-23T02:12:57.043Z,11.48
2019-04-23T02:14:08.291Z,11.53
2019-04-23T02:14:59.404Z,11.51
2019-04-23T02:15:55.480Z,11.51
2019-04-23T02:16:50.387Z,11.41
2019-04-23T02:17:58.005Z,11.31
2019-04-23T02:19:11.374Z,11.34
2019-04-23T02:20:02.333Z,11.33
2019-04-23T02:20:57.644Z,11.30
2019-04-23T02:22:01.174Z,11.26
2019-04-23T02:23:58.370Z,11.23
2019-04-23T02:24:55.850Z,11.23
2019-04-23T02:26:50.947Z,11.18
2019-04-23T02:27:59.872Z,11.20
2019-04-23T02:29:03.559Z,11.20
2019-04-23T02:30:10.654Z,11.20
2019-04-23T02:31:12.596Z,11.20
2019-04-23T02:33:15.044Z,11.20
2019-04-23T02:40:06.236Z,11.08
2019-04-23T02:41:04.783Z,11.10
2019-04-23T02:42:07.768Z,11.12
2019-04-23T02:44:04.857Z,11.10
2019-04-23T02:44:57.505Z,10.97
2019-04-23T02:46:02.407Z,10.90
2019-04-23T02:48:10.770Z,10.94
2019-04-23T02:50:11.167Z,10.90
2019-04-23T02:51:59.243Z,10.83
2019-04-23T02:53:05.207Z,10.76
2019-04-23T02:54:08.528Z,10.77
2019-04-23T02:55:03.785Z,10.68
2019-04-23T02:56:05.396Z,10.64
2019-04-23T02:58:06.101Z,10.67
2019-04-23T02:59:02.201Z,10.58
2019-04-23T03:02:05.801Z,10.46
2019-04-23T03:03:14.063Z,10.43
2019-04-23T03:04:00.896Z,10.42
2019-04-23T03:04:58.081Z,10.43
2019-04-23T03:07:11.701Z,10.43
2019-04-23T03:08:00.627Z,10.33
2019-04-23T03:08:54.870Z,10.21
2019-04-23T03:10:03.271Z,10.24
2019-04-23T03:11:56.790Z,10.10
2019-04-23T03:13:19.435Z,10.07
2019-04-23T03:14:00.317Z,10.02
2019-04-23T03:15:14.458Z,9.95
2019-04-23T03:16:08.481Z,9.87
2019-04-23T03:16:58.428Z,9.82
2019-04-23T03:18:11.767Z,9.82
2019-04-23T03:20:10.633Z,9.80
2019-04-23T03:21:15.614Z,9.69
2019-04-23T03:21:59.396Z,9.55
2019-04-23T03:23:03.353Z,9.54
2019-04-23T03:24:03.416Z,9.52
2019-04-23T03:26:00.182Z,9.47
2019-04-23T03:27:10.337Z,9.34
2019-04-23T03:28:04.101Z,9.40
2019-04-23T03:29:04.006Z,9.31
2019-04-23T03:30:49.201Z,9.24
2019-04-23T03:32:30.750Z,9.29
2019-04-23T03:38:05.872Z,9.02
2019-04-23T03:40:07.712Z,8.93
2019-04-23T03:41:08.935Z,8.79
2019-04-23T03:42:02.946Z,8.87
2019-04-23T03:43:46.448Z,8.96
2019-04-23T03:46:11.830Z,8.82
2019-04-23T03:47:16.239Z,8.72
2019-04-23T03:48:02.180Z,8.84
2019-04-23T03:48:51.188Z,8.77
2019-04-23T03:50:15.489Z,8.78
2019-04-23T03:50:52.888Z,8.71
2019-04-23T03:52:07.383Z,8.77
2019-04-23T03:52:54.799Z,8.68
2019-04-23T03:54:21.884Z,8.64
2019-04-23T03:54:48.708Z,8.68
2019-04-23T03:56:03.833Z,8.57
2019-04-23T03:57:54.133Z,8.53
2019-04-23T03:58:58.234Z,8.57
2019-04-23T04:00:58.979Z,8.53
2019-04-23T04:03:27.879Z,8.50
2019-04-23T04:04:20.267Z,8.49
2019-04-23T04:04:49.870Z,8.45
2019-04-23T04:08:10.298Z,8.35
2019-04-23T04:09:13.242Z,8.39
2019-04-23T04:09:51.782Z,8.36
2019-04-23T04:11:09.607Z,8.35
2019-04-23T04:11:57.276Z,8.24
2019-04-23T04:12:59.182Z,8.28
2019-04-23T04:14:30.109Z,8.26
2019-04-23T04:15:10.517Z,8.28
2019-04-23T04:16:00.758Z,8.21
2019-04-23T04:18:11.017Z,8.23
2019-04-23T04:19:56.280Z,8.21
2019-04-23T04:21:01.146Z,8.16
2019-04-23T04:22:00.739Z,8.16
2019-04-23T04:23:15.399Z,8.09
2019-04-23T04:24:05.063Z,8.16
2019-04-23T04:25:01.670Z,8.14
2019-04-23T04:26:16.304Z,8.16
2019-04-23T04:28:01.334Z,8.20
2019-04-23T04:29:00.611Z,8.08
2019-04-23T04:30:01.021Z,8.06
2019-04-23T04:30:52.175Z,8.05
2019-04-23T04:33:09.403Z,8.17
2019-04-23T04:36:08.275Z,8.09
2019-04-23T04:37:26.710Z,8.09
2019-04-23T04:38:04.267Z,8.11
2019-04-23T04:38:57.104Z,8.09
2019-04-23T04:41:56.873Z,8.13
2019-04-23T04:43:09.201Z,8.09
2019-04-23T04:44:17.039Z,8.08
2019-04-23T04:45:00.046Z,8.08
2019-04-23T04:47:14.838Z,8.09
2019-04-23T04:48:55.798Z,8.08
2019-04-23T04:51:04.205Z,8.05
2019-04-23T04:52:13.493Z,8.11
2019-04-23T04:54:55.963Z,8.13
2019-04-23T04:56:10.167Z,8.13
2019-04-23T04:59:07.687Z,8.13
2019-04-23T05:03:45.102Z,8.20
2019-04-23T05:05:05.306Z,8.28
2019-04-23T05:11:05.386Z,8.35
2019-04-23T05:12:03.609Z,8.32
2019-04-23T05:12:59.478Z,8.38
2019-04-23T05:14:00.177Z,8.32
2019-04-23T05:14:59.134Z,8.41
2019-04-23T05:15:53.914Z,8.39
2019-04-23T05:18:03.250Z,8.56
2019-04-23T05:18:52.086Z,8.54
2019-04-23T05:20:14.666Z,8.56
2019-04-23T05:21:01.923Z,8.72
2019-04-23T05:22:01.003Z,8.81
2019-04-23T05:23:09.187Z,8.84
2019-04-23T05:24:48.600Z,9.02
2019-04-23T05:25:51.249Z,9.11
2019-04-23T05:26:51.505Z,9.24
2019-04-23T05:29:01.760Z,9.37
2019-04-23T05:29:55.937Z,9.40
2019-04-23T05:30:52.153Z,9.49
2019-04-23T05:31:46.565Z,9.54
2019-04-23T05:32:45.177Z,9.69
2019-04-23T05:33:57.218Z,9.76
2019-04-23T05:34:50.321Z,9.82
2019-04-23T05:39:54.623Z,10.33
2019-04-23T05:40:53.634Z,10.45
2019-04-23T05:41:52.557Z,10.48
2019-04-23T05:42:56.419Z,10.57
2019-04-23T05:43:54.713Z,10.69
2019-04-23T05:44:57.133Z,10.75
2019-04-23T05:45:46.514Z,10.87
2019-04-23T05:46:52.175Z,11.00
2019-04-23T05:48:52.290Z,11.30
2019-04-23T05:49:55.044Z,11.31
2019-04-23T05:50:57.833Z,11.40
2019-04-23T05:52:57.759Z,11.53
2019-04-23T05:55:55.277Z,11.76
2019-04-23T05:57:01.783Z,11.89
2019-04-23T05:57:53.649Z,11.91
2019-04-23T05:58:54.543Z,12.03
2019-04-23T05:59:48.515Z,12.08
2019-04-23T06:00:54.474Z,12.21
2019-04-23T06:03:02.612Z,12.25
2019-04-23T06:03:58.247Z,12.36
2019-04-23T06:04:49.633Z,12.53
2019-04-23T06:05:54.270Z,12.48
2019-04-23T06:07:10.838Z,12.57
2019-04-23T06:07:51.258Z,12.65
2019-04-23T06:08:53.326Z,12.65
2019-04-23T06:09:56.333Z,12.66
2019-04-23T06:12:55.812Z,12.90
2019-04-23T06:13:52.507Z,12.90
2019-04-23T06:14:55.833Z,12.87
2019-04-23T06:16:12.292Z,13.03
2019-04-23T06:16:49.281Z,13.02
2019-04-23T06:17:47.442Z,13.19
2019-04-23T06:18:57.602Z,13.19
2019-04-23T06:19:49.811Z,13.24
2019-04-23T06:21:57.490Z,13.40
2019-04-23T06:22:51.204Z,13.43
2019-04-23T06:23:55.730Z,13.49
2019-04-23T06:24:49.198Z,13.57
2019-04-23T06:27:54.943Z,13.76
2019-04-23T06:28:58.162Z,13.75
2019-04-23T06:29:50.086Z,13.86
2019-04-23T06:30:56.008Z,13.82
2019-04-23T06:31:50.693Z,13.86
2019-04-23T06:32:46.456Z,14.00
2019-04-23T06:33:52.364Z,14.00
2019-04-23T06:34:48.397Z,14.01
2019-04-23T06:35:53.141Z,14.03
2019-04-23T06:38:16.267Z,14.13
2019-04-23T06:38:53.396Z,14.18
2019-04-23T06:39:49.846Z,14.19
2019-04-23T06:40:50.317Z,14.25
2019-04-23T06:41:50.047Z,14.28
2019-04-23T06:42:45.772Z,14.34
2019-04-23T06:43:56.422Z,14.36
2019-04-23T06:45:01.178Z,14.30
2019-04-23T06:45:45.902Z,14.36
2019-04-23T06:46:56.761Z,14.30
2019-04-23T06:47:46.432Z,14.33
2019-04-23T06:48:47.752Z,14.31
2019-04-23T06:49:54.468Z,14.38
2019-04-23T06:52:45.528Z,14.49
2019-04-23T06:53:43.733Z,14.53
2019-04-23T06:54:56.007Z,14.48
2019-04-23T06:55:49.447Z,14.51
2019-04-23T06:57:00.591Z,14.53
2019-04-23T06:57:49.730Z,14.53
2019-04-23T06:58:47.284Z,14.51
2019-04-23T06:59:52.679Z,14.52
2019-04-23T07:00:51.265Z,14.63
2019-04-23T07:01:53.246Z,14.66
2019-04-23T07:03:08.843Z,14.63
2019-04-23T07:03:55.738Z,14.66
2019-04-23T07:04:56.918Z,14.74
2019-04-23T07:05:55.461Z,14.73
2019-04-23T07:06:58.350Z,14.78
2019-04-23T07:08:02.887Z,14.82
2019-04-23T07:09:05.187Z,14.86
2019-04-23T07:09:43.906Z,14.94
2019-04-23T07:10:54.295Z,14.93
2019-04-23T07:11:42.826Z,14.93
2019-04-23T07:12:50.673Z,14.94
2019-04-23T07:14:51.763Z,15.04
2019-04-23T07:16:46.496Z,15.18
2019-04-23T07:17:51.859Z,15.15
2019-04-23T07:18:50.314Z,15.32
2019-04-23T07:19:48.345Z,15.30
2019-04-23T07:20:50.048Z,15.39
2019-04-23T07:21:54.493Z,15.48
2019-04-23T07:22:49.973Z,15.65
2019-04-23T07:23:59.176Z,15.57
2019-04-23T07:24:49.513Z,15.69
2019-04-23T07:25:55.919Z,15.75
2019-04-23T07:27:49.373Z,15.85
2019-04-23T07:29:56.788Z,15.90
2019-04-23T07:30:51.566Z,16.00
2019-04-23T07:32:49.731Z,15.99
2019-04-23T07:34:57.395Z,16.17
2019-04-23T07:35:51.895Z,16.18
2019-04-23T07:36:47.333Z,16.32
2019-04-23T07:37:54.534Z,16.49
2019-04-23T07:38:54.728Z,16.43
2019-04-23T07:39:58.993Z,16.47
2019-04-23T07:40:50.080Z,16.49
2019-04-23T07:41:56.034Z,16.50
2019-04-23T07:42:55.161Z,16.55
2019-04-23T07:43:54.550Z,16.62
2019-04-23T07:44:48.452Z,16.64
2019-04-23T07:45:57.580Z,16.77
2019-04-23T07:47:59.460Z,16.80
2019-04-23T07:48:48.024Z,16.89
2019-04-23T07:50:07.990Z,16.99
2019-04-23T07:50:49.163Z,17.14
2019-04-23T07:51:59.049Z,17.16
2019-04-23T07:53:01.915Z,17.22
2019-04-23T07:54:06.273Z,17.32
2019-04-23T07:54:58.784Z,17.38
2019-04-23T07:56:07.606Z,17.42
2019-04-23T07:56:53.830Z,17.41
2019-04-23T07:57:51.927Z,17.41
2019-04-23T07:58:44.672Z,17.52
2019-04-23T08:01:51.137Z,17.68
2019-04-23T08:02:50.129Z,17.86
2019-04-23T08:03:48.219Z,17.90
2019-04-23T08:05:13.767Z,17.95
2019-04-23T08:05:44.090Z,17.95
2019-04-23T08:06:57.795Z,17.88
2019-04-23T08:07:49.743Z,17.84
2019-04-23T08:08:52.668Z,17.84
2019-04-23T08:09:56.574Z,17.86
2019-04-23T08:11:10.995Z,17.95
2019-04-23T08:11:49.273Z,17.91
2019-04-23T08:12:48.089Z,18.05
2019-04-23T08:13:55.677Z,18.09
2019-04-23T08:14:53.473Z,18.23
2019-04-23T08:15:48.072Z,18.08
2019-04-23T08:16:49.939Z,18.06
2019-04-23T08:17:43.450Z,18.05
2019-04-23T08:19:25.487Z,18.09
2019-04-23T08:19:56.338Z,18.06
2019-04-23T08:20:50.867Z,18.05
2019-04-23T08:21:48.023Z,18.06
2019-04-23T08:22:45.791Z,17.93
2019-04-23T08:23:50.673Z,17.97
2019-04-23T08:25:56.402Z,17.80
2019-04-23T08:27:48.540Z,17.84
2019-04-23T08:28:58.481Z,17.82
2019-04-23T08:29:47.699Z,17.79
2019-04-23T08:30:49.989Z,17.76
2019-04-23T08:31:50.370Z,17.79
2019-04-23T08:32:52.168Z,17.80
2019-04-23T08:33:59.702Z,17.91
2019-04-23T08:34:51.714Z,17.94
2019-04-23T08:35:51.378Z,17.93
2019-04-23T08:36:50.170Z,18.03
2019-04-23T08:38:54.833Z,18.21
2019-04-23T08:40:59.147Z,18.31
2019-04-23T08:43:09.393Z,18.24
2019-04-23T08:44:11.283Z,18.21
2019-04-23T08:45:01.279Z,18.27
2019-04-23T08:45:46.247Z,18.33
2019-04-23T08:46:56.751Z,18.46
2019-04-23T08:47:54.638Z,18.51
2019-04-23T08:48:55.999Z,18.51
2019-04-23T08:49:47.683Z,18.48
2019-04-23T08:50:44.115Z,18.55
2019-04-23T08:51:54.774Z,18.60
2019-04-23T08:53:00.155Z,18.64
2019-04-23T08:54:04.379Z,18.67
2019-04-23T08:55:02.206Z,18.58
2019-04-23T08:55:50.159Z,18.73
2019-04-23T08:57:43.121Z,18.78
2019-04-23T08:59:06.964Z,18.82
2019-04-23T09:00:53.811Z,18.79
2019-04-23T09:01:57.954Z,18.85
2019-04-23T09:02:51.542Z,18.96
2019-04-23T09:04:00.373Z,19.01
2019-04-23T09:04:53.877Z,19.07
2019-04-23T09:05:54.363Z,19.04
2019-04-23T09:07:00.779Z,19.11
2019-04-23T09:07:58.521Z,19.24
2019-04-23T09:08:44.241Z,19.34
2019-04-23T09:09:50.801Z,19.49
2019-04-23T09:10:51.780Z,19.60
2019-04-23T09:11:58.003Z,19.84
2019-04-23T09:13:01.112Z,19.93
2019-04-23T09:14:51.053Z,20.21
2019-04-23T09:15:49.790Z,20.32
2019-04-23T09:16:52.538Z,20.34
2019-04-23T09:17:57.664Z,20.37
2019-04-23T09:18:51.225Z,20.44
2019-04-23T09:20:09.879Z,20.40
2019-04-23T09:20:42.985Z,20.42
2019-04-23T09:21:51.248Z,20.46
2019-04-23T09:22:45.221Z,20.44
2019-04-23T09:24:47.071Z,20.21
2019-04-23T09:25:49.930Z,20.19
2019-04-23T09:26:56.351Z,20.18
2019-04-23T09:27:44.807Z,20.10
2019-04-23T09:29:52.209Z,20.11
2019-04-23T09:30:49.585Z,20.12
2019-04-23T09:32:43.484Z,20.10
2019-04-23T09:35:02.501Z,20.10
2019-04-23T09:35:46.100Z,20.10
2019-04-23T09:36:51.687Z,20.11
2019-04-23T09:37:54.117Z,20.15
2019-04-23T09:39:54.773Z,20.32
2019-04-23T09:41:46.149Z,20.53
2019-04-23T09:43:48.557Z,20.53
2019-04-23T09:45:00.076Z,20.52
2019-04-23T09:45:48.816Z,20.44
2019-04-23T09:46:57.307Z,20.33
2019-04-23T09:47:53.715Z,20.39
2019-04-23T09:48:53.597Z,20.32
2019-04-23T09:49:50.806Z,20.36
2019-04-23T09:50:49.459Z,20.42
2019-04-23T09:51:56.296Z,20.55
2019-04-23T09:53:01.377Z,20.70
2019-04-23T09:53:59.440Z,20.73
2019-04-23T09:54:57.725Z,20.68
2019-04-23T09:55:46.594Z,20.68
2019-04-23T09:56:47.781Z,20.75
2019-04-23T09:57:50.041Z,20.68
2019-04-23T09:58:49.654Z,20.67
2019-04-23T09:59:48.950Z,20.67
2019-04-23T10:01:34.522Z,20.70
2019-04-23T10:02:33.928Z,20.67
2019-04-23T10:03:38.196Z,20.68
2019-04-23T10:04:36.881Z,20.73
2019-04-23T10:05:30.879Z,20.77
2019-04-23T10:06:24.940Z,20.74
2019-04-23T10:07:34.929Z,20.67
2019-04-23T10:08:27.929Z,20.63
2019-04-23T10:09:22.268Z,20.49
2019-04-23T10:10:20.802Z,20.33
2019-04-23T10:11:22.044Z,20.32
2019-04-23T10:12:22.026Z,20.17
2019-04-23T10:13:21.915Z,20.17
2019-04-23T10:14:20.794Z,20.32
2019-04-23T10:15:24.987Z,20.29
2019-04-23T10:16:23.314Z,20.29
2019-04-23T10:17:20.761Z,20.36
2019-04-23T10:18:20.383Z,20.42
2019-04-23T10:19:20.376Z,20.59
2019-04-23T10:20:20.649Z,20.67
2019-04-23T10:21:21.479Z,20.58
2019-04-23T10:22:20.343Z,20.63
2019-04-23T10:23:21.291Z,20.63
2019-04-23T10:24:21.055Z,20.64
2019-04-23T10:25:21.055Z,20.70
2019-04-23T10:26:21.740Z,20.89
2019-04-23T10:27:21.115Z,20.96
2019-04-23T10:28:22.125Z,21.26
2019-04-23T10:29:20.282Z,21.53
2019-04-23T10:30:21.721Z,21.68
2019-04-23T10:31:20.901Z,21.84
2019-04-23T10:32:21.745Z,21.92
2019-04-23T10:33:21.310Z,22.14
2019-04-23T10:34:21.136Z,22.31
2019-04-23T10:35:30.342Z,22.49
2019-04-23T10:36:23.924Z,22.58
2019-04-23T10:37:31.867Z,22.56
2019-04-23T10:38:22.070Z,22.43
2019-04-23T10:39:25.809Z,22.40
2019-04-23T10:40:26.196Z,22.51
2019-04-23T10:41:20.269Z,22.63
2019-04-23T10:42:21.849Z,22.68
2019-04-23T10:43:20.663Z,22.65
2019-04-23T10:44:21.482Z,22.92
2019-04-23T10:45:34.929Z,23.11
2019-04-23T10:46:38.059Z,23.29
2019-04-23T10:47:47.764Z,23.42
2019-04-23T10:49:53.360Z,23.26
2019-04-23T10:51:00.365Z,22.98
2019-04-23T10:53:02.664Z,22.93
2019-04-23T10:53:46.815Z,22.99
2019-04-23T10:54:52.324Z,23.28
2019-04-23T10:56:07.434Z,23.40
2019-04-23T10:56:53.180Z,23.40
2019-04-23T10:57:45.084Z,23.44
2019-04-23T10:58:45.823Z,23.48
2019-04-23T10:59:45.030Z,23.47
2019-04-23T11:01:53.101Z,23.55
2019-04-23T11:03:12.291Z,23.55
2019-04-23T11:04:02.460Z,23.55
2019-04-23T11:06:08.784Z,23.48
2019-04-23T11:07:33.993Z,23.56
2019-04-23T11:08:44.033Z,23.67
2019-04-23T11:10:48.499Z,23.49
2019-04-23T11:11:56.604Z,23.55
2019-04-23T11:14:49.943Z,24.06
2019-04-23T11:16:21.850Z,24.14
2019-04-23T11:21:07.486Z,24.19
2019-04-23T11:21:52.415Z,24.31
2019-04-23T11:23:51.793Z,24.48
2019-04-23T11:24:48.823Z,24.62
2019-04-23T11:25:42.585Z,24.71
2019-04-23T11:26:49.893Z,24.84
2019-04-23T11:27:52.193Z,25.11
2019-04-23T11:28:44.932Z,25.37
2019-04-23T11:29:51.873Z,25.62
2019-04-23T11:30:41.537Z,25.98
2019-04-23T11:32:21.519Z,25.98
2019-04-23T11:32:53.816Z,25.98
2019-04-23T11:33:55.030Z,25.95
2019-04-23T11:35:03.462Z,26.01
2019-04-23T11:36:01.748Z,25.86
2019-04-23T11:36:54.306Z,25.81
2019-04-23T11:39:00.682Z,25.59
2019-04-23T11:39:53.902Z,25.56
2019-04-23T11:40:42.028Z,25.55
2019-04-23T11:41:51.277Z,25.67
2019-04-23T11:43:01.144Z,25.76
2019-04-23T11:43:46.402Z,25.73
2019-04-23T11:44:49.072Z,25.70
2019-04-23T11:49:04.730Z,26.27
2019-04-23T11:49:53.269Z,26.34
2019-04-23T11:51:24.207Z,26.46
2019-04-23T11:52:04.454Z,26.52
2019-04-23T11:53:52.880Z,26.63
2019-04-23T11:54:50.906Z,26.67
2019-04-23T11:55:59.326Z,26.85
2019-04-23T11:57:14.823Z,27.04
2019-04-23T11:58:00.225Z,27.20
2019-04-23T11:58:49.234Z,27.30
2019-04-23T12:01:03.315Z,27.28
2019-04-23T12:02:49.813Z,26.78
2019-04-23T12:03:56.463Z,26.64
2019-04-23T12:04:57.332Z,26.52
2019-04-23T12:05:52.322Z,26.44
2019-04-23T12:07:50.260Z,26.11
2019-04-23T12:08:57.101Z,26.11
2019-04-23T12:09:53.640Z,26.10
2019-04-23T12:11:10.404Z,26.07
2019-04-23T12:13:03.338Z,26.26
2019-04-23T12:13:54.581Z,26.16
2019-04-23T12:14:48.083Z,26.31
2019-04-23T12:15:49.952Z,26.24
2019-04-23T12:17:05.653Z,26.11
2019-04-23T12:18:10.837Z,25.95
2019-04-23T12:19:17.925Z,25.73
2019-04-23T12:20:49.121Z,25.40
2019-04-23T12:21:53.159Z,25.48
2019-04-23T12:22:58.768Z,25.52
2019-04-23T12:25:52.825Z,25.73
2019-04-23T12:26:53.493Z,25.71
2019-04-23T12:27:58.973Z,25.68
2019-04-23T12:28:50.116Z,25.48
2019-04-23T12:29:50.649Z,25.40
2019-04-23T12:30:57.092Z,25.37
2019-04-23T12:31:47.643Z,25.24
2019-04-23T12:33:50.252Z,25.41
2019-04-23T12:35:40.783Z,25.71
2019-04-23T12:36:46.689Z,25.98
2019-04-23T12:38:00.740Z,26.04
2019-04-23T12:38:52.478Z,26.29
2019-04-23T12:39:57.194Z,26.33
2019-04-23T12:40:45.919Z,26.36
2019-04-23T12:41:55.257Z,26.31
2019-04-23T12:42:54.024Z,26.29
2019-04-23T12:43:47.417Z,26.19
2019-04-23T12:45:00.067Z,26.08
2019-04-23T12:45:43.952Z,26.08
2019-04-23T12:47:05.732Z,25.92
2019-04-23T12:49:13.060Z,25.61
2019-04-23T12:50:05.433Z,25.43
2019-04-23T12:50:48.736Z,25.25
2019-04-23T12:51:53.799Z,25.18
2019-04-23T12:53:01.071Z,25.29
2019-04-23T12:53:39.887Z,25.30
2019-04-23T12:55:02.856Z,25.37
2019-04-23T12:55:46.451Z,25.44
2019-04-23T12:56:57.393Z,25.56
2019-04-23T12:57:46.787Z,25.73
2019-04-23T12:58:41.450Z,25.70
2019-04-23T12:59:50.104Z,25.67
2019-04-23T13:00:45.836Z,25.59
2019-04-23T13:01:48.991Z,25.70
2019-04-23T13:03:45.532Z,25.95
2019-04-23T13:04:48.678Z,26.13
2019-04-23T13:05:38.919Z,26.10
2019-04-23T13:06:44.173Z,26.16
2019-04-23T13:07:52.070Z,26.04
2019-04-23T13:09:02.803Z,26.01
2019-04-23T13:09:52.547Z,25.93
2019-04-23T13:11:52.860Z,25.89
2019-04-23T13:12:50.300Z,25.81
2019-04-23T13:14:49.572Z,25.95
2019-04-23T13:15:48.841Z,25.85
2019-04-23T13:16:53.993Z,26.01
2019-04-23T13:17:49.971Z,25.99
2019-04-23T13:22:03.314Z,26.48
2019-04-23T13:23:45.979Z,26.34
2019-04-23T13:24:48.752Z,26.31
2019-04-23T13:25:48.081Z,26.27
2019-04-23T13:26:46.527Z,26.24
2019-04-23T13:27:54.343Z,26.03
2019-04-23T13:28:48.425Z,25.92
2019-04-23T13:29:51.796Z,25.63
2019-04-23T13:31:39.745Z,25.26
2019-04-23T13:32:52.206Z,25.25
2019-04-23T13:33:58.461Z,25.19
2019-04-23T13:35:53.274Z,25.24
2019-04-23T13:36:53.809Z,25.12
2019-04-23T13:37:57.196Z,25.16
2019-04-23T13:39:43.915Z,25.18
2019-04-23T13:41:45.810Z,25.22
2019-04-23T13:42:52.408Z,25.11
2019-04-23T13:43:45.407Z,24.97
2019-04-23T13:44:52.138Z,24.89
2019-04-23T13:46:49.836Z,24.78
2019-04-23T13:47:58.531Z,24.82
2019-04-23T13:48:42.354Z,24.78
2019-04-23T13:49:54.106Z,24.94
2019-04-23T13:51:50.817Z,24.85
2019-04-23T13:54:06.018Z,25.03
2019-04-23T13:55:50.430Z,25.25
2019-04-23T13:58:53.558Z,25.76
2019-04-23T13:59:48.421Z,25.81
2019-04-23T14:00:58.170Z,25.88
2019-04-23T14:01:46.593Z,26.08
2019-04-23T14:03:46.144Z,26.29
2019-04-23T14:04:50.676Z,26.30
2019-04-23T14:05:56.820Z,26.31
2019-04-23T14:06:52.741Z,26.37
2019-04-23T14:09:54.162Z,26.44
2019-04-23T14:10:48.189Z,26.52
2019-04-23T14:11:39.577Z,26.51
2019-04-23T14:13:06.522Z,26.48
2019-04-23T14:15:04.434Z,26.27
2019-04-23T14:15:53.973Z,26.08
2019-04-23T14:17:08.518Z,26.04
2019-04-23T14:18:56.083Z,25.62
2019-04-23T14:19:45.670Z,25.48
2019-04-23T14:20:46.879Z,25.40
2019-04-23T14:21:46.959Z,25.24
2019-04-23T14:24:04.553Z,25.25
2019-04-23T14:25:59.887Z,25.22
2019-04-23T14:27:10.901Z,25.25
2019-04-23T14:27:56.603Z,25.21
2019-04-23T14:28:46.352Z,25.31
2019-04-23T14:29:56.040Z,25.30
2019-04-23T14:30:53.472Z,25.41
2019-04-23T14:31:54.908Z,25.46
2019-04-23T14:32:53.971Z,25.44
2019-04-23T14:34:54.335Z,25.30
2019-04-23T14:35:45.226Z,25.06
2019-04-23T14:36:55.721Z,24.85
2019-04-23T14:38:06.593Z,24.81
2019-04-23T14:38:54.491Z,24.61
2019-04-23T14:39:47.655Z,24.58
2019-04-23T14:40:59.198Z,24.50
2019-04-23T14:42:01.149Z,24.34
2019-04-23T14:43:58.099Z,24.14
2019-04-23T14:44:52.430Z,24.10
2019-04-23T14:46:12.179Z,24.01
2019-04-23T14:46:53.040Z,23.92
2019-04-23T14:49:59.326Z,23.70
2019-04-23T14:51:11.396Z,23.52
2019-04-23T14:53:02.057Z,23.28
2019-04-23T14:53:46.381Z,23.17
2019-04-23T14:55:22.633Z,23.04
2019-04-23T14:55:57.032Z,22.93
2019-04-23T14:56:56.881Z,22.81
2019-04-23T14:58:00.351Z,22.83
2019-04-23T14:59:46.946Z,22.68
2019-04-23T15:00:57.512Z,22.62
2019-04-23T15:01:49.088Z,22.47
2019-04-23T15:02:54.311Z,22.55
2019-04-23T15:03:46.615Z,22.51
2019-04-23T15:04:50.645Z,22.59
2019-04-23T15:06:01.945Z,22.56
2019-04-23T15:06:50.755Z,22.47
2019-04-23T15:08:06.183Z,22.52
2019-04-23T15:09:54.965Z,22.41
2019-04-23T15:11:06.337Z,22.46
2019-04-23T15:11:57.610Z,22.38
2019-04-23T15:14:51.963Z,22.34
2019-04-23T15:15:53.234Z,22.31
2019-04-23T15:17:49.607Z,22.26
2019-04-23T15:19:48.232Z,22.18
2019-04-23T15:20:46.442Z,22.22
2019-04-23T15:21:53.754Z,22.22
2019-04-23T15:23:10.725Z,22.15
2019-04-23T15:24:06.960Z,22.19
2019-04-23T15:24:56.797Z,22.30
2019-04-23T15:26:15.442Z,22.31
2019-04-23T15:28:05.308Z,22.28
2019-04-23T15:28:29.082Z,22.28
2019-04-23T15:29:32.880Z,22.28
2019-04-23T15:30:50.829Z,22.25
2019-04-23T15:31:52.005Z,22.25
2019-04-23T15:33:00.504Z,22.22
2019-04-23T15:33:55.459Z,22.22
2019-04-23T15:34:47.350Z,22.19
2019-04-23T15:38:16.408Z,22.06
2019-04-23T15:38:54.068Z,22.04
2019-04-23T15:39:58.763Z,22.04
2019-04-23T15:40:51.189Z,22.07
2019-04-23T15:42:56.161Z,22.04
2019-04-23T15:43:49.515Z,22.01
2019-04-23T15:44:48.782Z,22.04
2019-04-23T15:45:52.571Z,22.07
2019-04-23T15:46:58.082Z,22.04
2019-04-23T15:47:53.772Z,22.07
2019-04-23T15:48:55.900Z,22.08
2019-04-23T15:49:51.560Z,22.01
2019-04-23T15:52:51.471Z,21.92
2019-04-23T15:53:52.287Z,21.97
2019-04-23T15:54:48.325Z,21.99
2019-04-23T15:55:49.447Z,21.91
2019-04-23T15:56:50.541Z,21.96
2019-04-23T15:58:03.203Z,21.88
2019-04-23T15:59:14.334Z,21.92
2019-04-23T15:59:47.923Z,21.97
2019-04-23T16:00:50.204Z,21.89
2019-04-23T16:01:40.590Z,21.91
2019-04-23T16:02:19.219Z,21.88